Time;durP1;ratioP1;P1;durP2;ratioP2;P2;SDS_P1;SDS_P2;PMS_P1;PMS_P2;Temp;Humidity;BMP_temperature;BMP_pressure;BME280_temperature;BME280_humidity;BME280_pressure;Samples;Min_cycle;Max_cycle;Signal;HPM_P1;HPM_P2
2024/01/19 00:00:25;;;;;;;19.13;13.93;;;1.80;99.90;;;;;;4978694;28;20195;-88
2024/01/19 00:02:54;;;;;;;23.42;14.45;;;2.20;99.90;;;;;;4970533;28;20197;-87
2024/01/19 00:05:33;;;;;;;19.73;13.52;;;1.40;99.90;;;;;;4978897;28;20204;-87
2024/01/19 00:07:59;;;;;;;17.77;13.63;;;1.10;99.90;;;;;;4976514;28;20180;-87
2024/01/19 00:10:25;;;;;;;23.93;16.17;;;;;;;;;;4975899;28;20182;-87
2024/01/19 00:12:56;;;;;;;20.48;14.27;;;1.90;99.90;;;;;;4973734;28;20189;-88
2024/01/19 00:15:22;;;;;;;19.15;13.88;;;;;;;;;;4978098;28;20204;-88
2024/01/19 00:17:51;;;;;;;20.35;13.55;;;1.60;99.90;;;;;;4974234;28;20647;-86
2024/01/19 00:20:17;;;;;;;16.98;13.90;;;;;;;;;;4976120;28;20188;-86
2024/01/19 00:22:43;;;;;;;33.05;16.10;;;1.70;99.90;;;;;;4973767;28;20204;-86
2024/01/19 00:25:19;;;;;;;25.00;15.52;;;3.70;99.90;;;;;;4954175;28;20232;-86
2024/01/19 00:27:47;;;;;;;18.20;14.05;;;1.50;99.90;;;;;;4977027;28;20189;-86
2024/01/19 00:30:30;;;;;;;;;;;;;;;;;;;;;
2024/01/19 00:32:57;;;;;;;21.23;14.82;;;;;;;;;;4973176;28;20204;-87
2024/01/19 00:35:25;;;;;;;21.23;13.32;;;1.80;99.90;;;;;;4969988;28;20240;-87
2024/01/19 00:38:27;;;;;;;18.17;14.32;;;1.60;99.90;;;;;;4979046;28;20620;-86
2024/01/19 00:41:06;;;;;;;17.25;13.27;;;3.70;99.90;;;;;;4961578;28;20579;-88
2024/01/19 00:43:39;;;;;;;23.35;14.00;;;2.10;99.90;;;;;;4974196;28;20414;-88
2024/01/19 00:46:17;;;;;;;17.98;14.38;;;;;;;;;;4971257;28;20216;-88
2024/01/19 00:49:00;;;;;;;19.65;14.10;;;1.90;99.90;;;;;;4964785;28;20805;-87
2024/01/19 00:51:26;;;;;;;18.92;14.38;;;2.20;99.90;;;;;;4974742;28;20280;-87
2024/01/19 00:54:00;;;;;;;20.70;14.60;;;1.50;99.90;;;;;;4970663;28;20201;-88
2024/01/19 00:56:33;;;;;;;18.27;13.40;;;1.40;99.90;;;;;;4973828;28;20749;-87
2024/01/19 00:59:02;;;;;;;17.27;12.48;;;3.00;99.90;;;;;;4975849;28;20688;-86
2024/01/19 01:01:27;;;;;;;19.45;12.57;;;0.70;99.90;;;;;;4976958;28;20674;-86
2024/01/19 01:04:02;;;;;;;19.13;13.03;;;1.70;99.90;;;;;;4974578;28;20216;-87
2024/01/19 01:06:28;;;;;;;20.60;13.95;;;;;;;;;;4978243;28;20554;-87
2024/01/19 01:08:54;;;;;;;22.42;13.98;;;;;;;;;;4970928;28;20185;-87
2024/01/19 01:11:34;;;;;;;20.15;14.68;;;1.80;99.90;;;;;;4975189;28;20275;-87
2024/01/19 01:14:00;;;;;;;19.70;14.13;;;;;;;;;;4961193;28;20195;-87
2024/01/19 01:16:26;;;;;;;22.20;13.40;;;;;;;;;;4977066;28;20563;-87
2024/01/19 01:18:54;;;;;;;23.55;14.45;;;1.60;99.90;;;;;;4973103;28;20272;-87
2024/01/19 01:21:21;;;;;;;20.27;14.75;;;;;;;;;;4974053;28;20200;-86
2024/01/19 01:23:47;;;;;;;21.23;14.50;;;1.40;99.90;;;;;;4973671;28;20247;-86
2024/01/19 01:26:20;;;;;;;20.97;14.90;;;;;;;;;;4977019;28;20232;-87
2024/01/19 01:28:49;;;;;;;22.90;14.23;;;1.20;99.90;;;;;;4975239;28;20208;-86
2024/01/19 01:31:22;;;;;;;21.25;15.70;;;2.20;99.90;;;;;;4975871;28;20203;-87
2024/01/19 01:34:03;;;;;;;23.52;14.13;;;1.10;99.90;;;;;;4960751;28;20646;-87
2024/01/19 01:36:34;;;;;;;24.65;14.68;;;1.20;99.90;;;;;;4974898;28;20181;-87
2024/01/19 01:39:02;;;;;;;24.30;13.80;;;;;;;;;;4978472;28;20192;-87
2024/01/19 01:41:36;;;;;;;22.83;13.85;;;1.40;99.90;;;;;;4977602;28;20185;-87
2024/01/19 01:44:04;;;;;;;21.33;14.20;;;;;;;;;;4984378;28;20205;-87
2024/01/19 01:46:38;;;;;;;21.65;12.98;;;0.90;99.90;;;;;;4979306;28;20243;-87
2024/01/19 01:49:11;;;;;;;19.75;14.05;;;0.30;99.90;;;;;;4976935;28;20200;-87
2024/01/19 01:51:40;;;;;;;21.25;14.98;;;1.00;99.90;;;;;;4961717;28;20185;-87
2024/01/19 01:54:17;;;;;;;18.70;13.80;;;1.50;99.90;;;;;;4976526;28;20204;-87
2024/01/19 01:56:45;;;;;;;18.85;13.90;;;2.50;99.90;;;;;;4975906;28;20180;-88
2024/01/19 01:59:11;;;;;;;23.30;14.27;;;;;;;;;;4962275;28;20188;-87
2024/01/19 02:01:42;;;;;;;19.42;13.20;;;1.40;99.90;;;;;;4961805;28;20315;-87
2024/01/19 02:04:11;;;;;;;17.63;12.65;;;1.50;99.90;;;;;;4980485;28;20188;-86
2024/01/19 02:06:38;;;;;;;21.98;13.88;;;;;;;;;;4978386;28;20183;-87
2024/01/19 02:09:07;;;;;;;24.05;14.15;;;;;;;;;;4974202;28;20181;-87
2024/01/19 02:11:37;;;;;;;19.05;14.25;;;1.20;99.90;;;;;;4982549;28;20181;-87
2024/01/19 02:14:05;;;;;;;17.70;13.35;;;1.50;99.90;;;;;;4984778;28;20256;-86
2024/01/19 02:16:44;;;;;;;24.45;16.48;;;1.90;99.90;;;;;;4984826;28;20177;-87
2024/01/19 02:19:15;;;;;;;17.48;13.80;;;3.00;99.90;;;;;;4983263;28;20195;-86
2024/01/19 02:21:44;;;;;;;21.48;15.05;;;0.30;99.90;;;;;;4985640;28;20181;-88
2024/01/19 02:24:18;;;;;;;17.75;13.40;;;1.50;99.90;;;;;;4976132;28;20192;-86
2024/01/19 02:26:47;;;;;;;18.60;12.93;;;;;;;;;;4975364;28;20599;-86
2024/01/19 02:29:25;;;;;;;;;;;;;;;;;;;;;
2024/01/19 02:32:03;;;;;;;19.58;13.65;;;1.30;99.90;;;;;;4991561;28;20276;-87
2024/01/19 02:34:31;;;;;;;22.13;14.30;;;1.60;99.90;;;;;;4974272;28;20216;-87
2024/01/19 02:37:17;;;;;;;19.67;13.25;;;1.50;99.90;;;;;;4972737;28;20200;-87
2024/01/19 02:39:43;;;;;;;18.20;12.60;;;;;;;;;;4959499;28;20196;-86
2024/01/19 02:42:09;;;;;;;19.45;13.95;;;1.40;99.90;;;;;;4974685;28;20196;-86
2024/01/19 02:44:35;;;;;;;20.17;14.07;;;;;;;;;;4971996;28;20217;-85
2024/01/19 02:47:03;;;;;;;18.02;13.05;;;;;;;;;;4975446;28;20435;-86
2024/01/19 02:49:33;;;;;;;16.30;12.65;;;1.70;99.90;;;;;;4975476;28;20181;-86
2024/01/19 02:52:05;;;;;;;17.25;12.23;;;;;;;;;;4974671;28;20199;-86
2024/01/19 02:54:36;;;;;;;21.08;13.48;;;1.80;99.90;;;;;;4971587;28;20241;-87
2024/01/19 02:57:34;;;;;;;;;;;;;;;;;;;;;
2024/01/19 03:00:10;;;;;;;16.38;13.13;;;2.10;99.90;;;;;;4987616;28;20181;-87
2024/01/19 03:08:34;;;;;;;23.10;14.77;;;0.30;99.90;;;;;;4959030;28;20232;-86
2024/01/19 03:11:03;;;;;;;20.08;14.15;;;1.10;99.90;;;;;;4955438;28;20187;-87
2024/01/19 03:13:42;;;;;;;;;;;;;;;;;;;;;
2024/01/19 03:16:26;;;;;;;18.95;14.00;;;1.10;99.90;;;;;;4954863;28;20244;-87
2024/01/19 03:19:05;;;;;;;;;;;;;;;;;;;;;
2024/01/19 03:21:50;;;;;;;21.48;13.50;;;1.00;99.90;;;;;;4957284;28;20191;-87
2024/01/19 03:24:26;;;;;;;19.35;13.88;;;0.80;99.90;;;;;;4955847;28;20204;-87
2024/01/19 03:27:01;;;;;;;;;;;;;;;;;;;;;
2024/01/19 03:29:32;;;;;;;22.45;13.98;;;0.90;99.90;;;;;;4957588;28;20479;-87
2024/01/19 03:31:58;;;;;;;20.63;14.35;;;1.50;99.90;;;;;;4956847;28;20658;-86
2024/01/19 03:34:25;;;;;;;23.63;14.77;;;;;;;;;;4953883;28;20217;-87
2024/01/19 03:36:51;;;;;;;20.10;15.98;;;;;;;;;;4959492;28;20199;-87
2024/01/19 03:39:20;;;;;;;27.15;17.65;;;0.70;99.90;;;;;;4960170;28;20189;-86
2024/01/19 03:41:57;;;;;;;23.30;15.98;;;0.50;99.90;;;;;;4957167;29;20189;-86
2024/01/19 03:45:07;;;;;;;22.52;14.50;;;1.00;99.90;;;;;;4960777;28;20313;-87
2024/01/19 03:47:51;;;;;;;20.95;14.55;;;0.60;99.90;;;;;;4957666;28;20259;-86
2024/01/19 03:50:19;;;;;;;23.63;16.88;;;0.70;99.90;;;;;;4956238;29;20223;-86
2024/01/19 03:52:45;;;;;;;22.50;15.15;;;1.30;99.90;;;;;;4985654;23;20224;-85
2024/01/19 03:55:10;;;;;;;21.50;14.60;;;0.80;99.90;;;;;;4977807;28;20204;-85
2024/01/19 03:57:36;;;;;;;24.57;15.77;;;0.70;99.90;;;;;;4974977;28;20188;-86
2024/01/19 04:00:05;;;;;;;19.67;14.83;;;0.70;99.90;;;;;;4977242;28;20223;-86
2024/01/19 04:02:30;;;;;;;21.35;14.68;;;0.80;99.90;;;;;;4974573;28;20184;-85
2024/01/19 04:04:56;;;;;;;21.40;13.63;;;0.80;99.90;;;;;;4982336;28;20243;-87
2024/01/19 04:07:22;;;;;;;23.73;15.20;;;1.40;99.90;;;;;;4990005;28;20335;-86
2024/01/19 04:09:50;;;;;;;18.80;12.53;;;0.90;99.90;;;;;;4989770;28;20184;-86
2024/01/19 04:12:27;;;;;;;22.67;14.63;;;0.70;99.90;;;;;;5003603;28;20516;-87
2024/01/19 04:14:53;;;;;;;20.67;15.02;;;1.50;99.90;;;;;;4982494;28;20208;-87
2024/01/19 04:17:18;;;;;;;22.60;14.80;;;0.90;99.90;;;;;;4980875;28;20198;-86
2024/01/19 04:19:44;;;;;;;21.07;14.03;;;0.80;99.90;;;;;;4988086;28;20362;-87
2024/01/19 04:22:09;;;;;;;21.93;14.60;;;1.40;99.90;;;;;;4982125;28;20203;-87
2024/01/19 04:24:35;;;;;;;19.33;13.67;;;1.30;99.90;;;;;;4980389;28;20212;-86
2024/01/19 04:27:00;;;;;;;22.47;13.87;;;1.10;99.90;;;;;;4976801;28;20185;-86
2024/01/19 04:29:26;;;;;;;21.33;15.17;;;1.10;99.90;;;;;;4982385;28;20200;-86
2024/01/19 04:31:52;;;;;;;24.70;16.00;;;0.70;99.90;;;;;;4977262;28;20201;-87
2024/01/19 04:34:18;;;;;;;21.02;15.50;;;0.70;99.90;;;;;;4972811;28;20252;-87
2024/01/19 04:36:45;;;;;;;22.90;15.33;;;0.50;99.90;;;;;;4982723;28;20192;-87
2024/01/19 04:39:11;;;;;;;24.35;16.50;;;0.50;99.90;;;;;;4994002;28;20164;-85
2024/01/19 04:41:37;;;;;;;20.93;15.90;;;0.40;99.90;;;;;;4980502;28;20776;-85
2024/01/19 04:44:04;;;;;;;19.73;14.37;;;0.50;99.90;;;;;;4972083;28;20474;-85
2024/01/19 04:46:29;;;;;;;23.35;15.60;;;0.70;99.90;;;;;;4975530;28;20735;-85
2024/01/19 04:48:55;;;;;;;26.67;15.00;;;0.60;99.90;;;;;;4975828;28;20200;-85
2024/01/19 04:51:20;;;;;;;21.40;14.70;;;0.40;99.90;;;;;;4974407;28;20188;-86
2024/01/19 04:53:48;;;;;;;22.50;14.33;;;0.50;99.90;;;;;;4974948;28;20188;-87
2024/01/19 04:56:14;;;;;;;23.25;17.48;;;0.50;99.90;;;;;;4978552;28;20204;-86
2024/01/19 04:58:40;;;;;;;20.92;14.98;;;0.60;99.90;;;;;;4974856;28;20283;-86
2024/01/19 05:01:05;;;;;;;23.77;16.50;;;0.30;99.90;;;;;;4973635;28;20267;-86
2024/01/19 05:03:31;;;;;;;24.23;14.70;;;0.50;99.90;;;;;;4974038;28;20215;-87
2024/01/19 05:05:57;;;;;;;21.30;16.10;;;0.40;99.90;;;;;;4979121;28;20219;-87
2024/01/19 05:08:22;;;;;;;25.20;16.13;;;0.90;99.90;;;;;;4979599;28;20211;-86
2024/01/19 05:10:48;;;;;;;28.30;17.83;;;0.50;99.90;;;;;;4972952;28;20182;-87
2024/01/19 05:13:13;;;;;;;21.00;15.70;;;0.50;99.90;;;;;;4971771;28;20526;-87
2024/01/19 05:15:39;;;;;;;23.73;17.30;;;0.30;99.90;;;;;;4977207;28;20243;-87
2024/01/19 05:18:05;;;;;;;22.88;14.75;;;0.40;99.90;;;;;;4976901;28;20193;-87
2024/01/19 05:20:31;;;;;;;20.33;14.67;;;0.40;99.90;;;;;;4972077;28;20192;-86
2024/01/19 05:22:57;;;;;;;24.35;14.48;;;0.30;99.90;;;;;;4972316;28;20184;-87
2024/01/19 05:25:22;;;;;;;22.53;16.67;;;0.40;99.90;;;;;;4977763;28;20238;-87
2024/01/19 05:27:53;;;;;;;22.20;15.17;;;0.30;99.90;;;;;;4980312;28;20235;-87
2024/01/19 05:30:21;;;;;;;21.30;15.10;;;0.40;99.90;;;;;;4972076;28;20185;-87
2024/01/19 05:32:46;;;;;;;21.45;15.32;;;0.70;99.90;;;;;;4979284;28;20229;-87
2024/01/19 05:35:12;;;;;;;24.77;16.30;;;0.50;99.90;;;;;;4988459;28;20193;-86
2024/01/19 05:37:38;;;;;;;23.43;16.23;;;0.50;99.90;;;;;;4977620;28;20196;-86
2024/01/19 05:40:04;;;;;;;25.07;16.23;;;0.30;99.90;;;;;;4973310;28;20196;-87
2024/01/19 05:42:29;;;;;;;23.02;15.63;;;0.40;99.90;;;;;;4983311;28;20456;-87
2024/01/19 05:44:55;;;;;;;25.17;16.30;;;0.80;99.90;;;;;;4986911;28;20271;-87
2024/01/19 05:47:21;;;;;;;24.50;15.60;;;0.90;99.90;;;;;;4979536;28;20200;-87
2024/01/19 05:49:46;;;;;;;22.17;15.90;;;0.50;99.90;;;;;;4979119;28;20185;-87
2024/01/19 05:52:12;;;;;;;17.80;12.67;;;0.80;99.90;;;;;;4976301;28;20192;-87
2024/01/19 05:54:37;;;;;;;20.73;14.00;;;0.70;99.90;;;;;;4976139;28;20216;-87
2024/01/19 05:57:03;;;;;;;21.23;13.97;;;0.60;99.90;;;;;;4972197;28;20184;-87
2024/01/19 05:59:29;;;;;;;25.47;15.47;;;0.40;99.90;;;;;;4976750;28;20200;-87
2024/01/19 06:01:54;;;;;;;25.30;14.53;;;0.90;99.90;;;;;;4971307;28;20188;-88
2024/01/19 06:04:21;;;;;;;22.70;15.60;;;0.70;99.90;;;;;;4976232;28;20204;-88
2024/01/19 06:06:47;;;;;;;21.48;15.90;;;0.60;99.90;;;;;;4973151;28;20188;-87
2024/01/19 06:09:12;;;;;;;24.30;15.77;;;0.60;99.90;;;;;;4970293;28;20193;-87
2024/01/19 06:11:38;;;;;;;20.70;14.70;;;0.50;99.90;;;;;;4973698;28;20850;-87
2024/01/19 06:14:03;;;;;;;18.57;14.70;;;0.60;99.90;;;;;;4972331;28;20883;-87
2024/01/19 06:16:29;;;;;;;17.90;14.40;;;1.10;99.90;;;;;;4960186;28;20307;-88
2024/01/19 06:18:55;;;;;;;21.33;15.55;;;0.80;99.90;;;;;;4977671;28;20197;-87
2024/01/19 06:21:21;;;;;;;23.42;15.18;;;0.90;99.90;;;;;;4980350;28;20196;-87
2024/01/19 06:23:46;;;;;;;19.40;12.87;;;0.20;99.90;;;;;;4979251;28;20184;-87
2024/01/19 06:26:12;;;;;;;20.73;13.93;;;0.50;99.90;;;;;;4972136;28;20303;-87
2024/01/19 06:28:38;;;;;;;22.20;15.10;;;0.80;99.90;;;;;;4973758;28;20211;-87
2024/01/19 06:31:05;;;;;;;21.48;14.98;;;0.60;99.90;;;;;;4983967;28;20188;-86
2024/01/19 06:33:31;;;;;;;24.08;15.18;;;0.70;99.90;;;;;;4981176;28;20196;-87
2024/01/19 06:35:56;;;;;;;19.15;14.07;;;1.20;99.90;;;;;;4984156;28;20213;-87
2024/01/19 06:38:23;;;;;;;21.83;15.57;;;0.50;99.90;;;;;;4977395;28;20215;-87
2024/01/19 06:40:49;;;;;;;22.13;15.32;;;0.50;99.90;;;;;;5008136;28;20168;-87
2024/01/19 06:43:15;;;;;;;22.90;16.33;;;0.70;99.90;;;;;;4983460;28;20204;-87
2024/01/19 06:45:42;;;;;;;22.77;16.10;;;0.60;99.90;;;;;;4976027;28;20227;-87
2024/01/19 06:48:09;;;;;;;24.20;15.80;;;;;;;;;;4969900;28;20205;-87
2024/01/19 06:50:34;;;;;;;23.30;16.10;;;0.50;99.90;;;;;;4975298;28;20288;-87
2024/01/19 06:53:00;;;;;;;19.23;13.70;;;0.40;99.90;;;;;;4974955;28;20464;-88
2024/01/19 06:55:27;;;;;;;22.25;15.30;;;0.40;99.90;;;;;;4974421;28;20235;-88
2024/01/19 06:57:53;;;;;;;25.02;15.10;;;0.60;99.90;;;;;;4971396;28;20181;-88
2024/01/19 07:00:19;;;;;;;23.87;14.87;;;0.60;99.90;;;;;;4972365;28;20188;-86
2024/01/19 07:02:45;;;;;;;18.07;14.97;;;0.80;99.90;;;;;;4982043;28;20506;-88
2024/01/19 07:05:11;;;;;;;20.80;15.07;;;1.00;99.90;;;;;;4975304;28;20563;-88
2024/01/19 07:07:36;;;;;;;23.00;15.80;;;0.80;99.90;;;;;;4969554;28;20551;-87
2024/01/19 07:10:02;;;;;;;17.40;13.67;;;1.30;99.90;;;;;;4991554;28;20211;-88
2024/01/19 07:12:28;;;;;;;23.30;15.77;;;0.70;99.90;;;;;;4972278;28;20183;-85
2024/01/19 07:14:53;;;;;;;21.67;15.40;;;1.20;99.90;;;;;;4979197;28;20280;-85
2024/01/19 07:17:19;;;;;;;22.47;14.33;;;0.80;99.90;;;;;;4974102;28;20203;-86
2024/01/19 07:19:44;;;;;;;26.50;15.13;;;1.50;99.90;;;;;;4975919;28;20192;-86
2024/01/19 07:22:10;;;;;;;20.60;14.17;;;1.20;99.90;;;;;;4982899;28;20219;-86
2024/01/19 07:24:35;;;;;;;19.13;14.40;;;1.30;99.90;;;;;;4977025;28;20220;-86
2024/01/19 07:27:03;;;;;;;20.40;14.03;;;1.70;99.90;;;;;;4974981;28;20613;-86
2024/01/19 07:29:29;;;;;;;19.85;13.60;;;0.90;99.90;;;;;;4974060;28;20235;-87
2024/01/19 07:31:55;;;;;;;20.88;14.63;;;0.60;99.90;;;;;;4979562;28;20168;-86
2024/01/19 07:34:21;;;;;;;17.20;12.87;;;0.80;99.90;;;;;;4986666;28;20181;-87
2024/01/19 07:36:46;;;;;;;22.00;13.90;;;1.10;99.90;;;;;;4988331;28;20471;-87
2024/01/19 07:39:12;;;;;;;21.73;14.10;;;0.70;99.90;;;;;;4994186;28;20189;-86
2024/01/19 07:41:37;;;;;;;26.00;15.70;;;0.70;99.90;;;;;;4991280;28;20169;-87
2024/01/19 07:44:03;;;;;;;18.80;14.30;;;0.60;99.90;;;;;;4990548;28;20216;-86
2024/01/19 07:46:28;;;;;;;20.20;14.80;;;0.90;99.90;;;;;;4985755;28;20220;-86
2024/01/19 07:48:54;;;;;;;24.27;16.40;;;0.50;99.90;;;;;;4985153;28;20209;-89
2024/01/19 07:51:20;;;;;;;22.97;16.30;;;0.60;99.90;;;;;;4984122;28;20185;-85
2024/01/19 07:53:46;;;;;;;18.75;13.52;;;1.00;99.90;;;;;;4992336;28;20208;-85
2024/01/19 07:56:11;;;;;;;21.23;14.50;;;1.10;99.90;;;;;;4985162;28;20200;-84
2024/01/19 07:58:37;;;;;;;18.77;14.47;;;0.70;99.90;;;;;;4990015;28;20168;-87
2024/01/19 08:01:04;;;;;;;20.93;14.60;;;1.10;99.90;;;;;;4990051;28;20172;-86
2024/01/19 08:03:30;;;;;;;24.83;14.68;;;0.60;99.90;;;;;;4988336;28;20228;-84
2024/01/19 08:05:55;;;;;;;21.07;15.50;;;1.20;99.90;;;;;;4986731;28;20212;-86
2024/01/19 08:08:21;;;;;;;20.53;15.37;;;1.20;99.90;;;;;;4982811;28;20258;-84
2024/01/19 08:10:46;;;;;;;21.80;15.93;;;0.60;99.90;;;;;;4985046;28;20192;-84
2024/01/19 08:13:12;;;;;;;20.23;14.20;;;0.30;99.90;;;;;;4983026;28;20193;-88
2024/01/19 08:15:39;;;;;;;23.33;14.87;;;0.80;99.90;;;;;;4978422;28;20284;-86
2024/01/19 08:18:04;;;;;;;21.20;15.63;;;0.90;99.90;;;;;;4976772;28;20637;-85
2024/01/19 08:20:32;;;;;;;22.13;14.83;;;1.00;99.90;;;;;;4976416;28;20223;-86
2024/01/19 08:22:57;;;;;;;19.98;14.00;;;1.00;99.90;;;;;;4959107;28;20319;-82
2024/01/19 08:25:23;;;;;;;20.63;13.33;;;1.00;99.90;;;;;;4983681;28;20209;-87
2024/01/19 08:27:49;;;;;;;19.13;13.93;;;1.10;99.90;;;;;;4984093;28;20447;-87
2024/01/19 08:30:16;;;;;;;19.43;13.67;;;1.50;99.90;;;;;;4979829;28;20180;-85
2024/01/19 08:32:41;;;;;;;19.25;13.73;;;1.20;99.90;;;;;;4980493;28;20184;-85
2024/01/19 08:35:10;;;;;;;22.47;13.93;;;1.80;99.90;;;;;;4992124;28;20233;-87
2024/01/19 08:37:38;;;;;;;21.98;15.93;;;2.10;99.90;;;;;;4983760;28;20192;-84
2024/01/19 08:40:05;;;;;;;23.05;16.75;;;2.00;99.90;;;;;;4965286;28;20515;-85
2024/01/19 08:42:31;;;;;;;19.80;15.70;;;1.90;99.90;;;;;;4977301;28;20289;-85
2024/01/19 08:44:58;;;;;;;23.23;16.55;;;1.70;99.90;;;;;;4979422;28;20284;-86
2024/01/19 08:47:23;;;;;;;21.57;15.17;;;1.70;99.90;;;;;;4991257;28;20251;-86
2024/01/19 08:49:49;;;;;;;22.53;15.67;;;2.30;99.90;;;;;;4990345;28;20452;-86
2024/01/19 08:52:15;;;;;;;19.93;15.70;;;2.20;99.90;;;;;;4981420;28;20197;-86
2024/01/19 08:54:40;;;;;;;23.80;17.13;;;2.10;99.90;;;;;;4983551;28;20208;-85
2024/01/19 08:57:06;;;;;;;23.60;16.90;;;1.90;99.90;;;;;;4985518;28;20291;-86
2024/01/19 08:59:32;;;;;;;21.80;16.33;;;1.80;99.90;;;;;;4977886;28;20191;-86
2024/01/19 09:01:57;;;;;;;22.48;14.93;;;2.40;99.90;;;;;;4979235;28;20218;-85
2024/01/19 09:04:24;;;;;;;23.80;15.63;;;2.00;99.90;;;;;;4977221;28;20208;-86
2024/01/19 09:06:50;;;;;;;18.40;14.68;;;1.90;99.90;;;;;;4977513;28;20181;-86
2024/01/19 09:09:15;;;;;;;19.30;14.02;;;2.50;99.90;;;;;;4980660;28;20195;-87
2024/01/19 09:11:41;;;;;;;23.60;15.37;;;1.80;99.90;;;;;;4976782;28;20184;-84
2024/01/19 09:14:09;;;;;;;21.73;14.40;;;1.80;99.90;;;;;;4970435;28;20188;-86
2024/01/19 09:16:35;;;;;;;22.65;15.52;;;1.80;99.90;;;;;;4980883;28;20700;-86
2024/01/19 09:19:00;;;;;;;20.70;16.87;;;1.80;99.90;;;;;;4979515;28;20215;-87
2024/01/19 09:21:26;;;;;;;25.17;15.60;;;2.40;99.90;;;;;;4975679;28;20188;-87
2024/01/19 09:23:51;;;;;;;21.73;16.53;;;1.90;99.90;;;;;;4975448;28;20201;-86
2024/01/19 09:26:18;;;;;;;21.17;16.30;;;3.50;99.90;;;;;;4968487;28;20219;-87
2024/01/19 09:28:44;;;;;;;24.98;17.20;;;3.10;99.90;;;;;;4988827;28;20606;-87
2024/01/19 09:31:10;;;;;;;17.93;15.30;;;3.70;99.90;;;;;;4985600;28;20187;-85
2024/01/19 09:33:35;;;;;;;21.23;14.20;;;4.40;99.90;;;;;;4999995;28;20182;-87
2024/01/19 09:36:01;;;;;;;20.03;15.50;;;4.90;99.90;;;;;;4973965;28;20290;-86
2024/01/19 09:38:26;;;;;;;19.43;14.37;;;5.50;99.90;;;;;;4973653;28;20515;-86
2024/01/19 09:41:02;;;;;;;18.40;12.93;;;5.20;99.90;;;;;;4978493;28;20220;-86
2024/01/19 09:43:32;;;;;;;17.48;15.23;;;5.30;99.90;;;;;;4973662;28;20247;-86
2024/01/19 09:46:04;;;;;;;17.20;14.10;;;5.40;99.90;;;;;;4977295;28;20236;-87
2024/01/19 09:48:35;;;;;;;18.98;14.55;;;5.00;99.90;;;;;;4975849;28;20192;-85
2024/01/19 09:51:06;;;;;;;23.80;15.50;;;4.90;99.90;;;;;;4978676;28;20184;-85
2024/01/19 09:53:36;;;;;;;20.25;15.27;;;4.80;99.90;;;;;;4980072;28;20192;-84
2024/01/19 09:56:03;;;;;;;20.15;15.98;;;5.10;99.90;;;;;;4976927;28;20212;-85
2024/01/19 09:58:30;;;;;;;19.80;14.48;;;4.90;99.90;;;;;;4973870;28;20184;-85
2024/01/19 10:00:55;;;;;;;20.88;15.65;;;4.70;99.90;;;;;;4982121;28;20192;-85
2024/01/19 10:03:22;;;;;;;19.87;16.20;;;4.80;99.90;;;;;;4979717;28;20229;-86
2024/01/19 10:05:50;;;;;;;21.15;16.05;;;4.30;99.90;;;;;;4980607;28;20477;-86
2024/01/19 10:08:17;;;;;;;17.75;14.35;;;4.30;99.90;;;;;;4975750;28;20183;-84
2024/01/19 10:10:43;;;;;;;20.70;15.15;;;3.90;99.90;;;;;;4974255;28;20198;-85
2024/01/19 10:13:09;;;;;;;19.15;15.35;;;4.40;99.90;;;;;;4981740;28;20194;-85
2024/01/19 10:15:35;;;;;;;21.27;16.95;;;3.90;99.90;;;;;;4995557;28;20637;-84
2024/01/19 10:18:03;;;;;;;18.60;14.90;;;3.60;99.90;;;;;;4976127;28;20221;-84
2024/01/19 10:20:29;;;;;;;15.77;13.60;;;4.00;99.90;;;;;;4983645;28;20251;-84
2024/01/19 10:22:54;;;;;;;22.48;15.10;;;3.60;99.90;;;;;;4981005;28;20225;-84
2024/01/19 10:25:20;;;;;;;16.80;13.40;;;3.60;99.90;;;;;;4982349;28;20205;-85
2024/01/19 10:27:48;;;;;;;18.93;14.70;;;3.10;99.90;;;;;;4981713;28;20253;-85
2024/01/19 10:30:15;;;;;;;24.15;14.65;;;3.60;99.90;;;;;;4993808;28;20204;-85
2024/01/19 10:32:45;;;;;;;18.55;13.55;;;3.40;99.90;;;;;;4979742;28;20213;-85
2024/01/19 10:35:12;;;;;;;19.88;15.80;;;3.30;99.90;;;;;;4984091;28;20213;-85
2024/01/19 10:37:38;;;;;;;21.02;16.05;;;4.00;99.90;;;;;;4970575;28;20220;-83
2024/01/19 10:40:27;;;;;;;19.83;14.17;;;4.30;99.90;;;;;;4975817;28;20191;-84
2024/01/19 10:42:55;;;;;;;17.20;13.32;;;5.00;99.90;;;;;;4968457;28;20573;-84
2024/01/19 10:45:29;;;;;;;17.85;13.25;;;6.00;99.90;;;;;;4976831;28;20583;-84
2024/01/19 10:48:00;;;;;;;17.33;13.60;;;6.80;99.30;;;;;;4980313;28;20587;-85
2024/01/19 10:50:28;;;;;;;15.13;13.52;;;7.60;96.90;;;;;;4980571;28;20654;-85
2024/01/19 10:52:55;;;;;;;15.82;13.77;;;8.40;95.30;;;;;;4975056;28;20188;-85
2024/01/19 10:55:21;;;;;;;15.55;11.93;;;8.60;94.80;;;;;;4978408;28;20566;-85
2024/01/19 10:58:09;;;;;;;19.00;13.03;;;9.30;92.90;;;;;;4984326;28;20225;-86
2024/01/19 11:00:41;;;;;;;12.10;10.75;;;10.00;92.60;;;;;;4976243;28;20253;-85
2024/01/19 11:03:07;;;;;;;9.85;8.95;;;8.50;92.10;;;;;;4985116;28;20188;-84
2024/01/19 11:05:34;;;;;;;11.07;9.80;;;8.40;91.70;;;;;;4989718;28;20296;-85
2024/01/19 11:08:01;;;;;;;10.27;8.82;;;6.80;93.00;;;;;;4986683;28;20208;-84
2024/01/19 11:10:28;;;;;;;11.50;8.75;;;6.70;93.10;;;;;;4977225;28;20520;-84
2024/01/19 11:13:01;;;;;;;8.60;7.80;;;6.80;94.20;;;;;;4977877;28;20605;-83
2024/01/19 11:15:37;;;;;;;10.30;7.75;;;6.70;94.60;;;;;;4977518;28;20208;-84
2024/01/19 11:18:04;;;;;;;11.35;8.02;;;6.40;94.30;;;;;;4987005;28;20197;-84
2024/01/19 11:20:31;;;;;;;9.20;7.22;;;5.90;94.30;;;;;;4976091;28;20227;-83
2024/01/19 11:22:57;;;;;;;9.25;8.13;;;5.40;95.30;;;;;;4973347;28;20184;-83
2024/01/19 11:26:01;;;;;;;9.27;7.27;;;6.10;96.80;;;;;;4976362;28;20218;-84
2024/01/19 11:28:33;;;;;;;9.75;8.05;;;5.70;96.20;;;;;;4987595;28;20483;-83
2024/01/19 11:31:08;;;;;;;13.98;7.85;;;6.20;95.60;;;;;;4981115;28;20220;-84
2024/01/19 11:33:33;;;;;;;8.95;6.57;;;5.80;95.60;;;;;;4975908;28;20198;-84
2024/01/19 11:35:59;;;;;;;8.48;6.95;;;5.90;95.00;;;;;;4979774;28;20212;-84
2024/01/19 11:38:45;;;;;;;8.63;7.20;;;6.50;95.30;;;;;;4984667;28;20203;-84
2024/01/19 11:41:33;;;;;;;8.57;7.18;;;5.90;95.40;;;;;;4978468;28;20542;-84
2024/01/19 11:44:06;;;;;;;7.45;5.80;;;4.90;96.10;;;;;;4976257;28;20716;-84
2024/01/19 11:46:46;;;;;;;11.18;7.03;;;4.90;96.40;;;;;;4976626;28;20691;-86
2024/01/19 11:49:30;;;;;;;9.27;7.13;;;5.50;97.40;;;;;;4975776;28;20210;-86
2024/01/19 11:51:56;;;;;;;9.75;6.97;;;4.90;97.40;;;;;;4977833;28;20205;-84
2024/01/19 11:54:29;;;;;;;8.38;7.13;;;4.60;98.30;;;;;;4965807;28;20313;-85
2024/01/19 11:57:15;;;;;;;8.10;6.47;;;4.80;98.80;;;;;;4977001;28;20187;-84
2024/01/19 11:59:40;;;;;;;8.02;6.45;;;5.20;97.70;;;;;;4981465;28;20187;-84
2024/01/19 12:02:06;;;;;;;12.73;11.47;;;4.80;97.00;;;;;;4982019;28;20201;-85
2024/01/19 12:04:34;;;;;;;5.83;5.23;;;4.90;96.20;;;;;;4978985;28;20270;-84
2024/01/19 12:07:03;;;;;;;7.03;5.80;;;4.60;96.00;;;;;;4982578;28;20188;-83
2024/01/19 12:09:29;;;;;;;6.65;5.97;;;5.10;96.60;;;;;;4985003;28;20181;-88
2024/01/19 12:11:58;;;;;;;6.10;5.50;;;5.00;96.60;;;;;;4992182;28;20186;-86
2024/01/19 12:14:23;;;;;;;6.65;5.50;;;5.00;95.80;;;;;;4981888;28;20250;-83
2024/01/19 12:16:50;;;;;;;7.37;5.67;;;5.40;95.30;;;;;;4988835;28;20748;-83
2024/01/19 12:19:16;;;;;;;8.10;6.10;;;5.40;96.20;;;;;;4980485;28;20183;-84
2024/01/19 12:21:42;;;;;;;7.47;5.30;;;5.50;95.20;;;;;;4988805;28;20199;-84
2024/01/19 12:24:08;;;;;;;6.70;5.95;;;;;;;;;;4988403;28;20451;-84
2024/01/19 12:26:35;;;;;;;6.87;5.33;;;;;;;;;;4991162;28;20779;-85
2024/01/19 12:29:00;;;;;;;6.72;6.03;;;5.80;94.90;;;;;;5011393;28;20418;-85
2024/01/19 12:31:36;;;;;;;6.67;5.50;;;7.80;95.30;;;;;;4986767;28;20195;-86
2024/01/19 12:34:12;;;;;;;5.13;4.63;;;6.50;92.10;;;;;;4973368;28;20200;-85
2024/01/19 12:36:38;;;;;;;6.75;6.13;;;6.70;92.40;;;;;;4984105;28;20196;-85
2024/01/19 12:39:11;;;;;;;7.33;6.27;;;6.50;93.00;;;;;;4977998;28;20250;-85
2024/01/19 12:41:40;;;;;;;8.50;5.15;;;6.40;93.30;;;;;;4974683;28;20333;-84
2024/01/19 12:44:06;;;;;;;4.60;4.15;;;6.00;92.30;;;;;;4981897;28;20698;-84
2024/01/19 12:46:31;;;;;;;5.60;4.20;;;5.50;92.50;;;;;;4978892;28;20576;-84
2024/01/19 12:48:58;;;;;;;7.83;5.40;;;5.50;93.60;;;;;;4977304;28;20580;-85
2024/01/19 12:51:25;;;;;;;6.20;5.55;;;5.40;93.90;;;;;;4978973;28;20275;-84
2024/01/19 12:53:54;;;;;;;7.20;5.45;;;5.20;94.30;;;;;;4983182;28;20203;-86
2024/01/19 12:56:29;;;;;;;7.65;5.32;;;5.40;94.20;;;;;;4979606;28;20364;-85
2024/01/19 12:59:08;;;;;;;6.60;5.13;;;5.50;94.00;;;;;;4978279;28;20275;-84
2024/01/19 13:01:41;;;;;;;9.25;6.60;;;5.30;94.20;;;;;;4975059;28;20216;-83
2024/01/19 13:04:06;;;;;;;10.35;7.38;;;5.30;95.80;;;;;;4974549;28;20200;-84
2024/01/19 13:06:32;;;;;;;7.30;6.17;;;;;;;;;;4982548;28;20219;-86
2024/01/19 13:08:58;;;;;;;7.43;6.45;;;5.30;95.90;;;;;;4983935;28;20244;-83